Time;durP1;ratioP1;P1;durP2;ratioP2;P2;SDS_P1;SDS_P2;PMS_P1;PMS_P2;Temp;Humidity;BMP_temperature;BMP_pressure;BME280_temperature;BME280_humidity;BME280_pressure;Samples;Min_cycle;Max_cycle;Signal;HPM_P1;HPM_P2
2022/02/01 00:00:44;;;;;;;4.05;1.92;;;5.80;99.90;;;;;;5049411;28;20306;-51
2022/02/01 00:03:15;;;;;;;6.82;2.22;;;5.80;99.90;;;;;;5048331;28;20707;-51
2022/02/01 00:05:49;;;;;;;6.07;2.17;;;5.80;99.90;;;;;;5049122;28;20283;-51
2022/02/01 00:08:27;;;;;;;7.55;2.30;;;5.80;99.90;;;;;;5049438;28;20250;-51
2022/02/01 00:11:05;;;;;;;7.03;2.20;;;5.80;99.90;;;;;;5049692;28;20189;-52
2022/02/01 00:13:42;;;;;;;2.33;1.45;;;5.80;99.90;;;;;;5038298;28;20279;-51
2022/02/01 00:19:35;;;;;;;6.80;1.95;;;5.80;99.90;;;;;;4978331;28;20255;-51
2022/02/01 00:35:59;;;;;;;8.45;1.73;;;5.80;99.90;;;;;;5049392;28;20200;-52
2022/02/01 00:38:33;;;;;;;7.22;1.88;;;5.80;99.90;;;;;;5049745;28;20714;-52
2022/02/01 00:41:05;;;;;;;3.67;2.45;;;5.80;99.90;;;;;;5047982;28;20222;-51
2022/02/01 00:43:34;;;;;;;6.10;3.28;;;5.80;99.90;;;;;;5047010;28;20224;-50
2022/02/01 00:46:03;;;;;;;7.03;1.90;;;5.80;99.90;;;;;;5049168;28;20247;-50
2022/02/01 00:48:32;;;;;;;5.38;2.00;;;5.80;99.90;;;;;;5038227;28;20308;-52
2022/02/01 00:51:00;;;;;;;7.03;2.15;;;5.80;99.90;;;;;;5035405;28;20185;-50
2022/02/01 00:53:30;;;;;;;3.17;1.80;;;5.80;99.90;;;;;;5048677;28;20262;-51
2022/02/01 00:55:59;;;;;;;5.45;1.25;;;5.80;99.90;;;;;;5048935;28;20181;-51
2022/02/01 00:58:27;;;;;;;9.23;1.92;;;5.80;99.90;;;;;;5037412;28;20735;-51
2022/02/01 01:00:55;;;;;;;6.70;2.30;;;5.80;99.90;;;;;;5033488;28;20275;-52
2022/02/01 01:03:25;;;;;;;3.55;1.60;;;5.80;99.90;;;;;;5046905;28;20216;-51
2022/02/01 01:05:54;;;;;;;9.57;2.47;;;5.80;99.90;;;;;;5048846;28;20193;-52
2022/02/01 01:08:23;;;;;;;3.47;1.52;;;5.80;99.90;;;;;;5048840;28;20311;-51
2022/02/01 01:10:51;;;;;;;2.88;1.80;;;5.80;99.90;;;;;;5048560;28;20193;-51
2022/02/01 01:13:43;;;;;;;3.15;1.73;;;5.80;99.90;;;;;;5043945;28;20226;-51
2022/02/01 01:16:23;;;;;;;4.55;2.50;;;5.80;99.90;;;;;;5048455;28;20266;-51
2022/02/01 01:38:39;;;;;;;5.18;1.55;;;5.80;99.90;;;;;;5048006;28;20228;-51
2022/02/01 01:43:33;;;;;;;13.55;1.70;;;5.80;99.90;;;;;;5048276;28;20259;-51
2022/02/01 01:44:37;;;;;;;5.15;1.67;;;5.80;99.90;;;;;;5047304;28;20227;-50
2022/02/01 01:53:09;;;;;;;7.18;2.22;;;5.70;99.90;;;;;;5048433;28;20191;-51
2022/02/01 01:55:38;;;;;;;6.00;1.67;;;5.70;99.90;;;;;;5047973;28;20224;-51
2022/02/01 01:58:07;;;;;;;7.97;2.28;;;5.80;99.90;;;;;;5044628;28;20205;-51
2022/02/01 02:00:51;;;;;;;6.95;2.55;;;5.70;99.90;;;;;;5049180;28;20258;-52
2022/02/01 02:03:20;;;;;;;3.65;1.70;;;5.70;99.90;;;;;;5038308;28;20221;-50
2022/02/01 02:05:48;;;;;;;3.80;1.17;;;5.70;99.90;;;;;;5036224;28;20710;-51
2022/02/01 02:08:17;;;;;;;3.22;2.03;;;5.70;99.90;;;;;;5047468;28;20658;-51
2022/02/01 02:10:56;;;;;;;5.15;1.90;;;5.70;99.90;;;;;;5048644;28;20243;-51
2022/02/01 02:16:10;;;;;;;7.25;1.85;;;5.70;99.90;;;;;;5047535;28;20722;-52
2022/02/01 02:18:38;;;;;;;3.25;1.38;;;5.70;99.90;;;;;;5040498;28;20240;-51
2022/02/01 02:21:08;;;;;;;6.55;1.77;;;5.70;99.90;;;;;;5048448;28;20196;-51
2022/02/01 02:23:36;;;;;;;3.25;1.85;;;5.70;99.90;;;;;;5029464;28;20763;-51
2022/02/01 02:26:07;;;;;;;2.75;1.88;;;5.70;99.90;;;;;;5048004;28;20592;-51
2022/02/01 02:28:36;;;;;;;3.83;1.25;;;5.70;99.90;;;;;;5046583;28;20244;-51
2022/02/01 02:31:04;;;;;;;3.50;1.50;;;5.70;99.90;;;;;;5048606;28;20212;-51
2022/02/01 02:33:33;;;;;;;3.38;1.50;;;5.70;99.90;;;;;;5040047;28;20216;-51
2022/02/01 02:36:06;;;;;;;4.57;1.75;;;5.70;99.90;;;;;;5048238;28;20292;-51
2022/02/01 02:38:42;;;;;;;5.78;2.05;;;5.70;99.90;;;;;;5047356;28;20212;-50
2022/02/01 02:41:30;;;;;;;4.88;1.48;;;5.70;99.90;;;;;;5041219;28;20212;-50
2022/02/01 02:46:46;;;;;;;6.32;1.58;;;5.70;99.90;;;;;;5047467;28;20299;-51
2022/02/01 02:49:18;;;;;;;5.72;1.70;;;5.70;99.90;;;;;;5021745;28;20224;-51
2022/02/01 02:51:46;;;;;;;4.03;1.40;;;5.70;99.90;;;;;;5049470;28;20238;-50
2022/02/01 02:54:17;;;;;;;5.03;1.50;;;5.70;99.90;;;;;;5050964;28;20311;-51
2022/02/01 02:56:47;;;;;;;9.48;1.95;;;5.70;99.90;;;;;;5051627;28;20612;-51
2022/02/01 02:59:15;;;;;;;4.60;2.40;;;5.70;99.90;;;;;;5049807;28;20306;-51
2022/02/01 03:01:47;;;;;;;3.97;2.08;;;5.70;99.90;;;;;;5052348;28;20197;-50
2022/02/01 03:04:16;;;;;;;5.13;1.63;;;5.70;99.90;;;;;;5033998;28;20704;-51
2022/02/01 03:06:45;;;;;;;3.40;1.48;;;5.70;99.90;;;;;;5046431;28;20709;-51
2022/02/01 03:09:14;;;;;;;3.40;1.50;;;5.70;99.90;;;;;;5050572;28;20243;-51
2022/02/01 03:11:45;;;;;;;4.28;1.50;;;5.70;99.90;;;;;;5051394;28;20193;-51
2022/02/01 03:14:22;;;;;;;3.25;1.63;;;5.70;99.90;;;;;;5048800;28;20347;-51
2022/02/01 03:17:07;;;;;;;4.00;1.52;;;5.70;99.90;;;;;;5051559;28;20272;-52
2022/02/01 03:19:49;;;;;;;7.15;2.28;;;5.70;99.90;;;;;;5041836;28;20303;-52
2022/02/01 03:22:18;;;;;;;3.88;1.50;;;5.70;99.90;;;;;;5052346;28;20204;-51
2022/02/01 03:24:47;;;;;;;8.10;1.98;;;5.70;99.90;;;;;;5050464;28;20736;-51
2022/02/01 03:27:17;;;;;;;3.17;1.30;;;5.70;99.90;;;;;;5050481;28;20604;-52
2022/02/01 03:29:45;;;;;;;3.60;1.75;;;5.70;99.90;;;;;;5049428;28;20243;-51
2022/02/01 03:32:13;;;;;;;4.63;1.60;;;5.70;99.90;;;;;;5051281;28;20227;-51
2022/02/01 03:34:41;;;;;;;3.20;1.58;;;5.70;99.90;;;;;;5039688;28;20606;-52
2022/02/01 03:37:09;;;;;;;3.38;1.50;;;5.70;99.90;;;;;;5051400;28;20220;-51
2022/02/01 03:39:37;;;;;;;3.25;1.55;;;5.70;99.90;;;;;;5049903;28;20220;-51
2022/02/01 03:42:06;;;;;;;1.73;1.42;;;5.70;99.90;;;;;;5047869;28;20200;-51
2022/02/01 03:44:36;;;;;;;3.17;1.50;;;5.70;99.90;;;;;;5037305;28;20719;-51
2022/02/01 03:47:04;;;;;;;3.83;1.35;;;5.70;99.90;;;;;;5050652;28;20652;-50
2022/02/01 03:49:34;;;;;;;1.85;1.15;;;5.70;99.90;;;;;;5047102;28;20216;-51
2022/02/01 03:52:04;;;;;;;2.60;1.30;;;5.70;99.90;;;;;;5050553;28;20197;-51
2022/02/01 03:54:34;;;;;;;5.22;1.90;;;5.70;99.90;;;;;;5049497;28;20228;-52
2022/02/01 03:57:04;;;;;;;4.65;1.35;;;5.70;99.90;;;;;;5034079;28;20292;-51
2022/02/01 03:59:32;;;;;;;3.70;1.40;;;5.70;99.90;;;;;;5046486;28;20294;-50
2022/02/01 04:02:02;;;;;;;6.70;1.75;;;5.70;99.90;;;;;;5050514;28;20193;-51
2022/02/01 04:04:33;;;;;;;2.45;1.70;;;5.70;99.90;;;;;;5046600;28;20220;-51
2022/02/01 04:07:02;;;;;;;3.42;1.70;;;5.70;99.90;;;;;;5031158;28;20359;-52
2022/02/01 04:09:30;;;;;;;7.30;1.77;;;5.60;99.90;;;;;;5044378;28;20250;-51
2022/02/01 04:12:00;;;;;;;2.30;1.38;;;5.60;99.90;;;;;;5050357;28;20216;-50
2022/02/01 04:14:31;;;;;;;6.57;1.75;;;5.60;99.90;;;;;;5044597;28;20224;-51
2022/02/01 04:17:05;;;;;;;4.32;1.60;;;5.60;99.90;;;;;;5050999;28;20239;-51
2022/02/01 04:19:35;;;;;;;4.85;1.95;;;5.60;99.90;;;;;;5044097;28;20224;-51
2022/02/01 04:22:05;;;;;;;2.95;1.35;;;5.60;99.90;;;;;;5050648;28;20597;-50
2022/02/01 04:24:34;;;;;;;2.75;1.50;;;5.60;99.90;;;;;;5049211;28;20255;-50
2022/02/01 04:27:04;;;;;;;2.00;1.40;;;5.60;99.90;;;;;;5039979;28;20201;-51
2022/02/01 04:29:33;;;;;;;3.75;1.75;;;5.60;99.90;;;;;;5042543;28;20228;-51
2022/02/01 04:32:02;;;;;;;3.25;1.75;;;5.60;99.90;;;;;;5050399;28;20192;-51
2022/02/01 04:34:30;;;;;;;3.97;1.73;;;5.60;99.90;;;;;;5031356;28;20227;-51
2022/02/01 04:36:58;;;;;;;4.70;1.65;;;5.60;99.90;;;;;;5050471;28;20228;-51
2022/02/01 04:39:26;;;;;;;6.25;1.50;;;5.60;99.90;;;;;;5049216;28;20655;-50
2022/02/01 04:41:54;;;;;;;5.20;2.03;;;5.60;99.90;;;;;;5050119;28;20634;-51
2022/02/01 04:44:23;;;;;;;2.72;1.75;;;5.60;99.90;;;;;;5049199;28;20212;-51
2022/02/01 04:46:52;;;;;;;3.40;1.65;;;5.60;99.90;;;;;;5050345;28;20204;-50
2022/02/01 04:49:21;;;;;;;2.22;1.38;;;5.60;99.90;;;;;;5040052;28;20232;-51
2022/02/01 04:51:50;;;;;;;1.90;1.20;;;5.60;99.90;;;;;;5049926;28;20357;-51
2022/02/01 04:54:18;;;;;;;3.38;1.40;;;5.60;99.90;;;;;;5049622;28;20228;-50
2022/02/01 04:56:46;;;;;;;2.95;1.20;;;5.60;99.90;;;;;;5048960;28;20240;-50
2022/02/01 04:59:14;;;;;;;1.77;1.10;;;5.60;99.90;;;;;;5049062;28;20251;-51
2022/02/01 05:01:42;;;;;;;10.88;3.20;;;5.60;99.90;;;;;;5049619;28;20234;-50
2022/02/01 05:04:12;;;;;;;5.90;1.55;;;5.60;99.90;;;;;;5033104;28;20644;-50
2022/02/01 05:06:42;;;;;;;2.50;1.30;;;5.60;99.90;;;;;;5045501;28;20220;-50
2022/02/01 05:09:10;;;;;;;3.40;1.40;;;5.60;99.90;;;;;;5048942;28;20248;-52
2022/02/01 05:11:38;;;;;;;4.30;1.95;;;5.60;99.90;;;;;;5043427;28;20209;-51
2022/02/01 05:14:11;;;;;;;1.58;1.15;;;5.60;99.90;;;;;;5033490;28;20636;-50
2022/02/01 05:16:56;;;;;;;1.77;1.60;;;5.60;99.90;;;;;;5049698;28;20215;-51
2022/02/01 05:19:35;;;;;;;2.97;1.80;;;5.60;99.90;;;;;;5047463;28;20312;-50
2022/02/01 05:22:08;;;;;;;4.72;1.65;;;5.60;99.90;;;;;;5049236;28;20188;-51
2022/02/01 05:24:38;;;;;;;4.22;1.70;;;5.60;99.90;;;;;;5048942;28;20223;-51
2022/02/01 05:27:11;;;;;;;7.05;2.25;;;5.60;99.90;;;;;;5039880;28;20220;-50
2022/02/01 05:29:40;;;;;;;4.70;1.60;;;5.60;99.90;;;;;;5039572;28;20269;-51
2022/02/01 05:32:22;;;;;;;6.80;1.88;;;5.60;99.90;;;;;;5049458;28;20440;-51
2022/02/01 05:34:52;;;;;;;4.82;1.45;;;5.60;99.90;;;;;;5028963;28;20271;-51
2022/02/01 05:37:23;;;;;;;3.63;1.80;;;5.50;99.90;;;;;;5039565;28;20610;-50
2022/02/01 05:39:51;;;;;;;3.00;1.20;;;5.60;99.90;;;;;;5049026;28;20622;-51
2022/02/01 05:42:25;;;;;;;2.35;1.00;;;5.50;99.90;;;;;;5044409;28;20333;-51
2022/02/01 05:44:53;;;;;;;2.72;1.40;;;5.60;99.90;;;;;;5048905;28;20596;-51
2022/02/01 05:47:21;;;;;;;3.00;1.48;;;5.60;99.90;;;;;;5048236;28;20188;-51
2022/02/01 05:49:49;;;;;;;3.90;1.55;;;5.50;99.90;;;;;;5045589;28;20224;-50
2022/02/01 05:52:17;;;;;;;2.50;2.00;;;5.50;99.90;;;;;;5031795;28;20283;-51
2022/02/01 05:54:46;;;;;;;4.43;1.17;;;5.50;99.90;;;;;;5048393;28;20220;-51
2022/02/01 05:57:15;;;;;;;3.20;1.23;;;5.50;99.90;;;;;;5048780;28;20266;-51
2022/02/01 05:59:42;;;;;;;1.88;1.00;;;5.60;99.90;;;;;;5048570;28;20871;-51
2022/02/01 06:02:10;;;;;;;3.15;1.15;;;5.50;99.90;;;;;;5049579;28;20231;-52
2022/02/01 06:04:39;;;;;;;6.22;1.55;;;5.50;99.90;;;;;;5047242;28;20265;-51
2022/02/01 06:07:07;;;;;;;3.90;1.20;;;5.50;99.90;;;;;;5049231;28;20192;-50
2022/02/01 06:09:35;;;;;;;4.93;1.65;;;5.50;99.90;;;;;;5048405;28;20315;-52
2022/02/01 06:12:05;;;;;;;5.05;1.77;;;5.50;99.90;;;;;;5048573;28;20203;-51
2022/02/01 06:14:38;;;;;;;1.95;1.30;;;5.50;99.90;;;;;;5048386;28;20251;-51
2022/02/01 06:17:06;;;;;;;3.05;0.90;;;5.50;99.90;;;;;;5049058;28;20203;-50
2022/02/01 06:19:35;;;;;;;1.73;1.00;;;5.50;99.90;;;;;;5034895;28;20227;-51
2022/02/01 06:22:04;;;;;;;3.53;1.60;;;5.50;99.90;;;;;;5032056;28;20287;-50
2022/02/01 06:24:34;;;;;;;2.50;2.05;;;5.50;99.90;;;;;;5048075;28;20216;-51
2022/02/01 06:27:04;;;;;;;4.57;2.17;;;5.50;99.90;;;;;;5031697;28;20284;-51
2022/02/01 06:29:32;;;;;;;2.58;1.10;;;5.50;99.90;;;;;;5036844;28;20746;-51
2022/02/01 06:32:00;;;;;;;4.57;1.40;;;5.50;99.90;;;;;;5052352;28;20197;-51
2022/02/01 06:34:28;;;;;;;1.63;1.42;;;5.50;99.90;;;;;;5051192;28;20311;-50
2022/02/01 06:36:56;;;;;;;3.50;1.23;;;5.50;99.90;;;;;;5053305;28;20555;-51
2022/02/01 06:39:27;;;;;;;3.53;1.45;;;5.50;99.90;;;;;;5052145;28;20315;-51
2022/02/01 06:41:55;;;;;;;2.75;2.08;;;5.50;99.90;;;;;;5049390;28;20609;-51
2022/02/01 06:44:25;;;;;;;3.30;1.98;;;5.50;99.90;;;;;;5051434;28;20224;-51
2022/02/01 06:46:53;;;;;;;4.85;1.60;;;5.50;99.90;;;;;;5052126;28;20201;-52
2022/02/01 06:49:21;;;;;;;4.70;2.17;;;5.50;99.90;;;;;;5050466;28;20331;-51
2022/02/01 06:51:49;;;;;;;4.78;1.50;;;5.50;99.90;;;;;;5035194;28;20216;-51
2022/02/01 06:54:18;;;;;;;2.20;1.05;;;5.50;99.90;;;;;;5052087;28;20712;-51
2022/02/01 06:56:46;;;;;;;2.83;1.42;;;5.50;99.90;;;;;;5037421;28;20240;-52
2022/02/01 06:59:14;;;;;;;3.70;1.58;;;5.50;99.90;;;;;;5042002;28;20774;-52
2022/02/01 07:01:43;;;;;;;1.73;1.35;;;5.50;99.90;;;;;;5051598;28;20220;-52
2022/02/01 07:04:12;;;;;;;3.88;1.50;;;5.50;99.90;;;;;;5036648;28;20244;-50
2022/02/01 07:06:40;;;;;;;4.80;1.88;;;5.50;99.90;;;;;;5036384;28;20629;-50
2022/02/01 07:09:08;;;;;;;5.53;1.63;;;5.50;99.90;;;;;;5050215;28;20243;-50
2022/02/01 07:11:38;;;;;;;3.33;1.58;;;5.50;99.90;;;;;;5053395;28;20192;-51
2022/02/01 07:14:07;;;;;;;2.58;1.40;;;5.50;99.90;;;;;;5051811;28;20228;-51
2022/02/01 07:16:36;;;;;;;2.15;1.48;;;5.50;99.90;;;;;;5054084;28;20220;-50
2022/02/01 07:19:05;;;;;;;3.97;2.75;;;5.50;99.90;;;;;;5051971;28;20224;-51
2022/02/01 07:21:34;;;;;;;4.85;2.90;;;5.50;99.90;;;;;;5051533;28;20288;-51
2022/02/01 07:24:04;;;;;;;2.42;1.58;;;5.50;99.90;;;;;;5054833;28;20306;-57
2022/02/01 07:26:33;;;;;;;4.03;2.10;;;5.50;99.90;;;;;;5058506;28;20714;-51
2022/02/01 07:29:01;;;;;;;3.53;2.10;;;5.50;99.90;;;;;;5037716;28;20362;-50
2022/02/01 07:31:35;;;;;;;5.00;2.42;;;5.40;99.90;;;;;;5051286;28;20185;-50
2022/02/01 07:34:05;;;;;;;7.50;2.60;;;5.50;99.90;;;;;;5038629;28;20266;-50
2022/02/01 07:36:34;;;;;;;6.20;2.10;;;5.50;99.90;;;;;;5050819;28;20208;-51
2022/02/01 07:39:05;;;;;;;8.00;2.03;;;5.40;99.90;;;;;;5049848;28;20216;-51
2022/02/01 07:41:33;;;;;;;2.88;1.30;;;5.40;99.90;;;;;;5039936;28;20193;-51
2022/02/01 07:44:02;;;;;;;8.43;2.35;;;5.50;99.90;;;;;;5039402;28;20307;-51
2022/02/01 07:46:31;;;;;;;4.22;1.92;;;5.40;99.90;;;;;;5040225;28;20230;-50
2022/02/01 07:48:59;;;;;;;6.97;2.40;;;5.40;99.90;;;;;;5035281;28;20367;-51
2022/02/01 07:51:29;;;;;;;3.45;1.80;;;5.40;99.90;;;;;;5049330;28;20266;-51
2022/02/01 07:53:57;;;;;;;3.83;1.92;;;5.40;99.90;;;;;;5049541;28;20349;-51
2022/02/01 07:56:25;;;;;;;4.38;1.75;;;5.40;99.90;;;;;;5040453;28;20223;-52
2022/02/01 07:58:53;;;;;;;4.35;2.40;;;5.40;99.90;;;;;;5048743;28;20738;-51
2022/02/01 08:01:21;;;;;;;6.18;2.53;;;5.40;99.90;;;;;;5049272;28;20950;-50
2022/02/01 08:03:50;;;;;;;6.63;2.63;;;5.40;99.90;;;;;;5047560;28;20224;-51
2022/02/01 08:06:18;;;;;;;6.43;3.15;;;5.40;99.90;;;;;;5049346;28;20193;-52
2022/02/01 08:08:48;;;;;;;5.90;2.67;;;5.40;99.90;;;;;;5049615;28;20267;-51
2022/02/01 08:11:17;;;;;;;4.85;2.40;;;5.40;99.90;;;;;;5044651;28;20386;-51
2022/02/01 08:16:46;;;;;;;5.78;2.72;;;5.40;99.90;;;;;;5006433;28;20924;-51
2022/02/01 08:19:25;;;;;;;2.90;2.47;;;5.40;99.90;;;;;;5033663;28;20260;-51
2022/02/01 08:21:54;;;;;;;3.05;2.20;;;5.40;99.90;;;;;;5049822;28;20211;-51
2022/02/01 08:24:24;;;;;;;3.78;2.25;;;5.40;99.90;;;;;;5048538;28;20224;-52
2022/02/01 08:26:52;;;;;;;4.55;2.80;;;5.40;99.90;;;;;;5038879;28;20219;-52
2022/02/01 08:29:20;;;;;;;4.13;2.05;;;5.40;99.90;;;;;;5048806;28;20315;-51
2022/02/01 08:31:49;;;;;;;6.07;2.30;;;5.40;99.90;;;;;;5049655;28;20278;-50
2022/02/01 08:34:20;;;;;;;3.17;2.58;;;5.40;99.90;;;;;;5047511;28;20307;-52
2022/02/01 08:36:48;;;;;;;4.63;2.40;;;5.40;99.90;;;;;;5048692;28;20193;-51
2022/02/01 08:39:17;;;;;;;3.80;2.22;;;5.40;99.90;;;;;;5048812;28;20224;-51
2022/02/01 08:41:47;;;;;;;5.10;2.50;;;5.40;99.90;;;;;;5041172;28;20203;-51
2022/02/01 08:44:16;;;;;;;5.72;2.72;;;5.40;99.90;;;;;;5045566;28;20323;-51
2022/02/01 08:46:45;;;;;;;3.10;1.80;;;5.40;99.90;;;;;;5049227;28;20200;-51
2022/02/01 08:49:13;;;;;;;2.70;1.80;;;5.40;99.90;;;;;;5040234;28;20224;-51
2022/02/01 08:51:44;;;;;;;2.80;1.67;;;5.40;99.90;;;;;;5045897;28;20745;-50
2022/02/01 08:54:18;;;;;;;5.57;1.83;;;5.40;99.90;;;;;;5029931;28;20305;-51
2022/02/01 08:59:34;;;;;;;3.10;1.95;;;5.40;99.90;;;;;;5048486;28;20231;-52
2022/02/01 09:02:02;;;;;;;3.25;2.22;;;5.40;99.90;;;;;;5048461;28;20660;-51
2022/02/01 09:04:31;;;;;;;3.67;2.00;;;5.40;99.90;;;;;;5045519;28;20228;-52
2022/02/01 09:06:59;;;;;;;2.65;2.25;;;5.40;99.90;;;;;;5048919;28;20563;-51
2022/02/01 09:09:28;;;;;;;6.18;2.90;;;5.40;99.90;;;;;;5046787;28;20615;-51
2022/02/01 09:11:58;;;;;;;1.80;1.60;;;5.40;99.90;;;;;;5044813;28;20192;-51
2022/02/01 09:14:28;;;;;;;2.25;1.70;;;5.40;99.90;;;;;;5039393;28;20688;-52
2022/02/01 09:16:56;;;;;;;3.30;1.80;;;5.40;99.90;;;;;;5048205;28;20188;-51
2022/02/01 09:19:24;;;;;;;1.80;1.60;;;5.40;99.90;;;;;;5045763;28;20228;-51
2022/02/01 09:21:53;;;;;;;4.53;1.70;;;5.40;99.90;;;;;;5048390;28;20188;-52
2022/02/01 09:24:22;;;;;;;3.15;1.48;;;5.40;99.90;;;;;;5046968;28;20232;-51
2022/02/01 09:26:51;;;;;;;3.70;1.90;;;5.40;99.90;;;;;;5041737;28;20197;-51
2022/02/01 09:29:21;;;;;;;2.92;2.10;;;5.40;99.90;;;;;;5034950;28;20546;-51
2022/02/01 09:31:50;;;;;;;1.70;1.50;;;5.40;99.90;;;;;;5048592;28;20184;-51
2022/02/01 09:34:20;;;;;;;2.05;1.60;;;5.40;99.90;;;;;;5037244;28;20379;-52
2022/02/01 09:36:50;;;;;;;3.70;1.77;;;5.40;99.90;;;;;;5048395;28;20223;-51
2022/02/01 09:39:18;;;;;;;2.97;1.40;;;5.40;99.90;;;;;;5046580;28;20236;-50
2022/02/01 09:41:47;;;;;;;3.03;1.98;;;5.40;99.90;;;;;;5048407;28;20200;-51
2022/02/01 09:44:16;;;;;;;3.22;1.55;;;5.40;99.90;;;;;;5034840;28;20224;-52
2022/02/01 09:46:48;;;;;;;3.58;1.60;;;5.40;99.90;;;;;;5048641;28;20207;-51
2022/02/01 09:49:19;;;;;;;2.67;1.48;;;5.40;99.90;;;;;;5030135;28;20311;-52
2022/02/01 09:51:51;;;;;;;2.10;1.45;;;5.40;99.90;;;;;;5047798;28;20230;-51
2022/02/01 09:54:22;;;;;;;1.77;1.40;;;5.40;99.90;;;;;;5044858;28;20078;-50
2022/02/01 09:56:51;;;;;;;2.15;1.63;;;5.40;99.90;;;;;;5045499;28;20204;-50
2022/02/01 09:59:22;;;;;;;2.00;1.05;;;5.50;99.90;;;;;;5046480;28;20239;-51
2022/02/01 10:01:56;;;;;;;3.15;1.60;;;5.50;99.90;;;;;;5047741;28;20184;-51
2022/02/01 10:04:28;;;;;;;1.83;1.02;;;5.50;99.90;;;;;;5044903;28;20234;-52
2022/02/01 10:07:07;;;;;;;1.67;1.35;;;5.50;99.90;;;;;;5047769;28;20224;-51
2022/02/01 10:09:47;;;;;;;2.72;1.40;;;5.50;99.90;;;;;;5044259;28;20220;-51
2022/02/01 10:12:16;;;;;;;2.08;1.23;;;5.50;99.90;;;;;;5040664;28;20200;-51
2022/02/01 10:14:52;;;;;;;3.17;1.50;;;5.50;99.90;;;;;;5046670;28;20301;-51
2022/02/01 10:17:38;;;;;;;3.55;1.50;;;5.50;99.90;;;;;;5044000;28;20196;-51
2022/02/01 10:20:07;;;;;;;2.22;1.50;;;5.50;99.90;;;;;;5042305;28;20323;-51
2022/02/01 10:22:37;;;;;;;2.88;1.80;;;5.50;99.90;;;;;;5047818;28;20563;-51
2022/02/01 10:25:19;;;;;;;1.50;1.40;;;5.50;99.90;;;;;;5046203;28;20220;-51
2022/02/01 10:27:54;;;;;;;2.33;1.33;;;5.50;99.90;;;;;;5043388;28;20296;-51
2022/02/01 10:30:45;;;;;;;3.20;2.00;;;5.50;99.90;;;;;;5047941;28;20262;-51
2022/02/01 10:33:53;;;;;;;3.05;1.27;;;5.50;99.90;;;;;;5041638;28;20228;-51
2022/02/01 10:36:20;;;;;;;1.88;1.50;;;5.50;99.90;;;;;;5047437;28;20192;-51
2022/02/01 10:38:50;;;;;;;2.42;1.20;;;5.50;99.90;;;;;;5046968;28;20277;-51
2022/02/01 10:41:27;;;;;;;1.42;1.30;;;5.50;99.90;;;;;;5046487;28;20250;-51
2022/02/01 10:43:56;;;;;;;1.73;1.52;;;5.50;99.90;;;;;;5046252;28;22319;-51
2022/02/01 10:46:25;;;;;;;1.10;1.00;;;5.50;99.90;;;;;;5030015;28;20579;-51
2022/02/01 10:48:56;;;;;;;1.45;1.30;;;5.50;99.90;;;;;;5041377;28;20220;-50
2022/02/01 10:51:25;;;;;;;2.03;1.10;;;5.50;99.90;;;;;;5047853;28;20639;-51
2022/02/01 10:53:55;;;;;;;1.17;1.08;;;5.50;99.90;;;;;;5046525;28;20691;-51
2022/02/01 10:56:26;;;;;;;1.15;1.00;;;5.50;99.90;;;;;;5029420;28;20231;-50
2022/02/01 10:58:54;;;;;;;1.60;1.10;;;5.50;99.90;;;;;;5031019;28;20228;-50
2022/02/01 11:01:26;;;;;;;1.92;1.15;;;5.50;99.90;;;;;;5045564;28;20729;-50
2022/02/01 11:04:02;;;;;;;1.90;1.27;;;5.50;99.90;;;;;;5034539;28;20225;-50
2022/02/01 11:06:35;;;;;;;2.72;1.33;;;5.50;99.90;;;;;;5044792;28;20188;-52
2022/02/01 11:09:06;;;;;;;3.28;1.38;;;5.50;99.90;;;;;;5046192;28;20247;-50
2022/02/01 11:11:35;;;;;;;1.52;1.10;;;5.50;99.90;;;;;;5038909;28;20221;-51
2022/02/01 11:14:03;;;;;;;1.63;0.90;;;5.50;99.90;;;;;;5045340;28;20234;-50
2022/02/01 11:16:34;;;;;;;2.10;1.45;;;5.50;99.90;;;;;;5051899;28;20228;-50
2022/02/01 11:19:21;;;;;;;1.13;0.90;;;5.50;99.90;;;;;;5033979;28;20225;-51
2022/02/01 11:21:55;;;;;;;1.80;1.40;;;5.50;99.90;;;;;;5034063;28;20574;-50
2022/02/01 11:24:32;;;;;;;1.20;1.08;;;5.50;99.90;;;;;;5049487;28;20247;-51
2022/02/01 11:27:14;;;;;;;1.30;1.20;;;5.50;99.90;;;;;;5038894;28;20216;-51
2022/02/01 11:30:11;;;;;;;2.85;1.20;;;5.50;99.90;;;;;;5047560;28;20208;-50
2022/02/01 11:32:48;;;;;;;1.88;1.05;;;5.50;99.90;;;;;;5049511;28;20652;-51
2022/02/01 11:35:24;;;;;;;1.25;0.95;;;5.50;99.90;;;;;;5050343;28;20247;-50
2022/02/01 11:38:18;;;;;;;0.90;0.73;;;5.50;99.90;;;;;;5049698;28;20216;-51
2022/02/01 11:40:49;;;;;;;1.70;0.80;;;5.50;99.90;;;;;;5050765;28;20302;-50
2022/02/01 11:43:38;;;;;;;1.75;1.10;;;5.50;99.90;;;;;;5045286;28;20255;-50
2022/02/01 11:46:09;;;;;;;1.02;0.85;;;5.50;99.90;;;;;;5049709;28;20255;-51
2022/02/01 11:48:40;;;;;;;1.48;1.05;;;5.50;99.90;;;;;;5048033;28;20234;-52
2022/02/01 11:51:16;;;;;;;1.27;1.10;;;5.50;99.90;;;;;;5050565;28;20189;-51
2022/02/01 11:53:46;;;;;;;1.63;0.88;;;5.50;99.90;;;;;;5050460;28;20224;-51
2022/02/01 11:56:17;;;;;;;1.48;0.85;;;5.50;99.90;;;;;;5049277;28;20215;-51
2022/02/01 11:58:47;;;;;;;1.17;1.05;;;5.50;99.90;;;;;;5049196;28;20535;-51
2022/02/01 12:01:23;;;;;;;1.50;1.20;;;5.50;99.90;;;;;;5050652;28;20188;-51
2022/02/01 12:04:03;;;;;;;1.20;1.08;;;5.50;99.90;;;;;;5037030;28;20228;-51
2022/02/01 12:06:43;;;;;;;1.15;1.02;;;5.50;99.90;;;;;;5048188;28;20232;-51
2022/02/01 12:09:18;;;;;;;1.13;1.00;;;5.50;99.90;;;;;;5041954;28;20245;-51
2022/02/01 12:11:50;;;;;;;2.50;1.30;;;5.50;99.90;;;;;;5030916;28;20266;-51
2022/02/01 12:14:19;;;;;;;4.63;1.20;;;5.50;99.90;;;;;;5041685;28;20695;-51
2022/02/01 12:16:48;;;;;;;0.68;0.57;;;5.50;99.90;;;;;;5050868;28;20284;-51
2022/02/01 12:19:25;;;;;;;1.10;1.00;;;5.50;99.90;;;;;;5038982;28;20695;-50
2022/02/01 12:22:05;;;;;;;1.27;1.00;;;5.50;99.90;;;;;;5049419;28;20192;-50
2022/02/01 12:24:33;;;;;;;1.05;0.90;;;5.50;99.90;;;;;;5042453;28;20224;-51
2022/02/01 12:27:02;;;;;;;1.15;1.05;;;5.50;99.90;;;;;;5047807;28;20523;-51
2022/02/01 12:29:31;;;;;;;1.00;0.88;;;5.50;99.90;;;;;;5046144;28;20220;-51
2022/02/01 12:32:07;;;;;;;1.75;1.15;;;5.50;99.90;;;;;;5049227;28;20185;-50
2022/02/01 12:34:36;;;;;;;1.05;0.80;;;5.50;99.90;;;;;;5045739;28;20703;-51
2022/02/01 12:37:08;;;;;;;1.48;0.90;;;5.50;99.90;;;;;;5051789;28;20250;-50
2022/02/01 12:39:43;;;;;;;1.60;1.02;;;5.50;99.90;;;;;;5049424;28;20270;-51
2022/02/01 12:42:17;;;;;;;1.17;0.90;;;5.50;99.90;;;;;;5046251;28;20193;-50
2022/02/01 12:47:36;;;;;;;1.00;0.90;;;5.50;99.90;;;;;;5046940;28;20250;-51
2022/02/01 12:50:14;;;;;;;1.42;1.00;;;5.50;99.90;;;;;;5029615;28;20220;-51
2022/02/01 12:52:43;;;;;;;1.08;0.93;;;5.50;99.90;;;;;;5030609;28;20208;-51
2022/02/01 12:55:14;;;;;;;1.23;0.70;;;5.50;99.90;;;;;;5045011;28;20217;-51
2022/02/01 12:58:05;;;;;;;0.93;0.80;;;5.50;99.90;;;;;;5036247;28;20209;-50
2022/02/01 13:00:35;;;;;;;0.90;0.80;;;5.50;99.90;;;;;;5029865;28;20221;-50
2022/02/01 13:03:04;;;;;;;1.48;0.93;;;5.50;99.90;;;;;;5035970;28;20184;-50
2022/02/01 13:05:36;;;;;;;0.90;0.80;;;5.50;99.90;;;;;;5049836;28;20642;-51
2022/02/01 13:08:37;;;;;;;0.75;0.73;;;5.50;99.90;;;;;;5050354;28;20284;-51
2022/02/01 13:16:47;;;;;;;1.90;0.93;;;5.50;99.90;;;;;;5048214;28;20287;-50
2022/02/01 13:22:10;;;;;;;1.02;0.93;;;5.50;99.90;;;;;;5049434;28;20193;-50
2022/02/01 13:24:40;;;;;;;1.17;0.70;;;5.50;99.90;;;;;;5049227;28;20231;-51
2022/02/01 13:27:19;;;;;;;1.08;0.50;;;5.50;99.90;;;;;;5047922;28;20254;-51
2022/02/01 13:29:59;;;;;;;1.20;0.80;;;5.50;99.90;;;;;;5049002;28;20412;-51
2022/02/01 13:32:36;;;;;;;1.35;0.90;;;5.50;99.90;;;;;;5047389;28;20760;-51
2022/02/01 13:35:07;;;;;;;0.75;0.70;;;5.50;99.90;;;;;;5042506;28;20220;-50
2022/02/01 13:37:37;;;;;;;1.15;0.68;;;5.50;99.90;;;;;;5049627;28;20192;-50
2022/02/01 13:40:08;;;;;;;0.80;0.80;;;5.50;99.90;;;;;;5048901;28;20216;-51
2022/02/01 13:42:39;;;;;;;1.65;0.90;;;5.50;99.90;;;;;;5030262;28;20204;-51
2022/02/01 13:45:10;;;;;;;1.70;0.65;;;5.50;99.90;;;;;;5028534;28;20229;-51
2022/02/01 13:47:40;;;;;;;2.50;0.70;;;5.50;99.90;;;;;;5029413;28;20271;-51
2022/02/01 13:50:11;;;;;;;0.85;0.63;;;5.50;99.90;;;;;;5029272;28;20263;-50
2022/02/01 13:52:39;;;;;;;0.70;0.52;;;5.50;99.90;;;;;;5029502;28;20189;-51
2022/02/01 13:55:20;;;;;;;2.45;1.05;;;5.50;99.90;;;;;;5028596;28;20584;-51
2022/02/01 13:57:49;;;;;;;0.80;0.70;;;5.50;99.90;;;;;;5044823;28;20291;-51
2022/02/01 14:00:18;;;;;;;0.93;0.73;;;5.50;99.90;;;;;;5048609;28;20635;-51
2022/02/01 14:03:18;;;;;;;0.93;0.88;;;5.50;99.90;;;;;;5041777;28;20192;-51
2022/02/01 14:06:09;;;;;;;0.75;0.60;;;5.50;99.90;;;;;;5040106;28;20220;-50
2022/02/01 14:08:48;;;;;;;0.73;0.63;;;5.50;99.90;;;;;;5048743;28;20248;-50
2022/02/01 14:23:41;;;;;;;1.67;0.80;;;5.50;99.90;;;;;;5049066;28;20188;-51
2022/02/01 14:26:26;;;;;;;1.77;0.85;;;5.50;99.90;;;;;;5048367;28;20734;-51
2022/02/01 14:28:59;;;;;;;0.70;0.68;;;5.60;99.90;;;;;;5014263;28;20251;-50
2022/02/01 14:34:16;;;;;;;1.23;0.88;;;5.50;99.90;;;;;;5036892;28;20691;-50
2022/02/01 14:36:48;;;;;;;0.90;0.85;;;5.50;99.90;;;;;;5048776;28;20192;-50
2022/02/01 14:45:00;;;;;;;0.88;0.73;;;5.60;99.90;;;;;;5039335;28;20774;-51
2022/02/01 14:47:28;;;;;;;0.70;0.60;;;5.60;99.90;;;;;;5047172;28;20655;-50